createdAt,value
2023-03-11T00:00:20.075Z,180.67
2023-03-11T00:00:51.927Z,186.33
2023-03-11T00:01:23.666Z,195.67
2023-03-11T00:01:55.786Z,196.33
2023-03-11T00:02:27.561Z,191.00
2023-03-11T00:03:01.681Z,191.33
2023-03-11T00:03:33.485Z,197.67
2023-03-11T00:04:05.322Z,211.67
2023-03-11T00:04:37.106Z,228.00
2023-03-11T00:05:09.991Z,237.00
2023-03-11T00:05:44.550Z,242.33
2023-03-11T00:06:16.736Z,226.33
2023-03-11T00:06:48.506Z,219.33
2023-03-11T00:07:20.363Z,222.00
2023-03-11T00:07:52.540Z,222.00
2023-03-11T00:08:25.661Z,225.33
2023-03-11T00:08:57.497Z,231.67
2023-03-11T00:09:29.384Z,235.00
2023-03-11T00:10:01.158Z,236.67
2023-03-11T00:10:38.946Z,240.67
2023-03-11T00:11:10.684Z,244.00
2023-03-11T00:11:42.383Z,247.00
2023-03-11T00:12:15.361Z,247.67
2023-03-11T00:12:47.120Z,244.00
2023-03-11T00:13:19.008Z,242.00
2023-03-11T00:13:50.765Z,235.00
2023-03-11T00:14:22.759Z,231.33
2023-03-11T00:14:54.545Z,226.00
2023-03-11T00:15:28.017Z,223.00
2023-03-11T00:16:01.100Z,221.00
2023-03-11T00:16:32.878Z,220.00
2023-03-11T00:17:04.743Z,212.67
2023-03-11T00:17:36.586Z,196.67
2023-03-11T00:18:08.591Z,192.33
2023-03-11T00:18:40.416Z,195.33
2023-03-11T00:19:12.195Z,196.00
2023-03-11T00:19:43.898Z,197.67
2023-03-11T00:20:20.417Z,199.00
2023-03-11T00:20:52.813Z,197.00
2023-03-11T00:21:24.550Z,195.67
2023-03-11T00:21:56.700Z,192.67
2023-03-11T00:22:28.459Z,190.67
2023-03-11T00:23:01.667Z,187.00
2023-03-11T00:23:35.644Z,173.67
2023-03-11T00:24:07.620Z,168.00
2023-03-11T00:24:39.335Z,172.33
2023-03-11T00:25:12.700Z,170.67
2023-03-11T00:25:46.186Z,170.33
2023-03-11T00:26:18.085Z,171.00
2023-03-11T00:26:49.853Z,176.00
2023-03-11T00:27:21.621Z,179.33
2023-03-11T00:27:54.083Z,180.67
2023-03-11T00:28:26.914Z,181.67
2023-03-11T00:28:58.641Z,183.33
2023-03-11T00:29:30.377Z,185.33
2023-03-11T00:30:02.120Z,187.67
2023-03-11T00:30:34.185Z,191.67
2023-03-11T00:31:06.170Z,203.33
2023-03-11T00:31:38.013Z,204.00
2023-03-11T00:32:09.764Z,203.67
2023-03-11T00:32:41.830Z,219.67
2023-03-11T00:33:16.414Z,228.00
2023-03-11T00:33:48.544Z,231.00
2023-03-11T00:34:20.234Z,232.33
2023-03-11T00:34:51.957Z,228.00
2023-03-11T00:35:27.213Z,223.67
2023-03-11T00:35:58.980Z,221.67
2023-03-11T00:36:33.936Z,219.00
2023-03-11T00:37:05.721Z,217.00
2023-03-11T00:37:37.414Z,211.00
2023-03-11T00:38:13.902Z,208.00
2023-03-11T00:38:45.708Z,206.00
2023-03-11T00:39:17.492Z,205.00
2023-03-11T00:39:49.223Z,204.00
2023-03-11T00:40:22.292Z,204.00
2023-03-11T00:40:54.165Z,204.00
2023-03-11T00:41:26.089Z,205.00
2023-03-11T00:41:57.830Z,205.00
2023-03-11T00:42:29.681Z,205.00
2023-03-11T00:43:01.650Z,203.33
2023-03-11T00:43:33.691Z,211.67
2023-03-11T00:44:05.422Z,259.33
2023-03-11T00:44:37.112Z,269.33
2023-03-11T00:45:09.221Z,260.33
2023-03-11T00:45:41.273Z,241.00
2023-03-11T00:46:13.229Z,232.00
2023-03-11T00:46:45.021Z,231.00
2023-03-11T00:47:17.432Z,233.00
2023-03-11T00:47:49.247Z,238.00
2023-03-11T00:48:20.965Z,234.33
2023-03-11T00:48:52.867Z,232.33
2023-03-11T00:49:24.694Z,235.33
2023-03-11T00:49:56.416Z,246.00
2023-03-11T00:50:33.919Z,249.33
2023-03-11T00:51:07.615Z,279.33
2023-03-11T00:51:39.426Z,286.00
2023-03-11T00:52:11.160Z,279.00
2023-03-11T00:52:42.857Z,274.67
2023-03-11T00:53:14.859Z,273.33
2023-03-11T00:53:46.557Z,270.67
2023-03-11T00:54:18.587Z,287.00
2023-03-11T00:54:50.360Z,275.33
2023-03-11T00:55:25.527Z,265.33
2023-03-11T00:55:57.360Z,262.00
2023-03-11T00:56:29.176Z,260.33
2023-03-11T00:57:01.045Z,258.67
2023-03-11T00:57:32.793Z,256.67
2023-03-11T00:58:06.404Z,255.67
2023-03-11T00:58:38.657Z,246.33
2023-03-11T00:59:10.411Z,232.00
2023-03-11T00:59:42.140Z,222.33
2023-03-11T01:00:16.121Z,222.67
2023-03-11T01:00:47.930Z,227.33
2023-03-11T01:01:21.328Z,228.67
2023-03-11T01:01:53.092Z,228.33
2023-03-11T01:02:24.914Z,228.67
2023-03-11T01:02:57.458Z,224.00
2023-03-11T01:03:29.365Z,216.67
2023-03-11T01:04:01.166Z,210.67
2023-03-11T01:04:32.939Z,215.00
2023-03-11T01:05:05.942Z,220.67
2023-03-11T01:05:37.759Z,222.00
2023-03-11T01:06:09.597Z,224.33
2023-03-11T01:06:45.715Z,226.33
2023-03-11T01:07:17.647Z,229.67
2023-03-11T01:07:49.928Z,231.67
2023-03-11T01:08:21.658Z,233.00
2023-03-11T01:08:53.453Z,233.00
2023-03-11T01:09:25.157Z,231.00
2023-03-11T01:09:56.916Z,227.67
2023-03-11T01:10:30.705Z,226.33
2023-03-11T01:11:04.093Z,227.33
2023-03-11T01:11:35.907Z,228.00
2023-03-11T01:12:07.649Z,228.00
2023-03-11T01:12:39.616Z,229.00
2023-03-11T01:13:11.712Z,229.00
2023-03-11T01:13:43.463Z,228.67
2023-03-11T01:14:15.234Z,228.00
2023-03-11T01:14:46.972Z,224.33
2023-03-11T01:15:31.751Z,219.00
2023-03-11T01:16:03.706Z,213.67
2023-03-11T01:16:35.596Z,213.33
2023-03-11T01:17:07.306Z,214.33
2023-03-11T01:17:39.044Z,215.33
2023-03-11T01:18:10.849Z,216.67
2023-03-11T01:18:42.675Z,217.67
2023-03-11T01:19:15.391Z,218.00
2023-03-11T01:19:47.087Z,219.00
2023-03-11T01:20:19.090Z,219.00
2023-03-11T01:20:50.965Z,220.00
2023-03-11T01:21:22.663Z,220.67
2023-03-11T01:21:54.341Z,221.00
2023-03-11T01:22:26.422Z,221.00
2023-03-11T01:22:58.155Z,221.00
2023-03-11T01:23:30.177Z,221.00
2023-03-11T01:24:01.940Z,221.00
2023-03-11T01:24:33.819Z,221.00
2023-03-11T01:25:05.927Z,221.00
2023-03-11T01:25:37.692Z,221.00
2023-03-11T01:26:09.394Z,221.00
2023-03-11T01:26:41.165Z,220.00
2023-03-11T01:27:12.949Z,220.00
2023-03-11T01:27:44.979Z,220.00
2023-03-11T01:28:17.025Z,220.33
2023-03-11T01:28:48.830Z,220.33
2023-03-11T01:29:20.573Z,217.67
2023-03-11T01:29:52.335Z,212.00
2023-03-11T01:30:25.555Z,212.00
2023-03-11T01:30:57.345Z,212.67
2023-03-11T01:31:29.169Z,213.00
2023-03-11T01:32:00.953Z,213.00
2023-03-11T01:32:32.720Z,212.67
2023-03-11T01:33:05.158Z,209.00
2023-03-11T01:33:36.988Z,206.00
2023-03-11T01:34:08.730Z,202.67
2023-03-11T01:34:40.485Z,201.00
2023-03-11T01:35:15.359Z,200.00
2023-03-11T01:35:47.290Z,202.00
2023-03-11T01:36:19.053Z,204.00
2023-03-11T01:36:50.753Z,217.33
2023-03-11T01:37:22.579Z,240.67
2023-03-11T01:37:55.229Z,256.67
2023-03-11T01:38:27.026Z,260.00
2023-03-11T01:38:58.942Z,260.67
2023-03-11T01:39:31.125Z,264.00
2023-03-11T01:40:03.242Z,270.00
2023-03-11T01:40:41.880Z,269.33
2023-03-11T01:41:13.583Z,259.00
2023-03-11T01:41:45.361Z,252.00
2023-03-11T01:42:17.070Z,248.67
2023-03-11T01:42:48.867Z,247.00
2023-03-11T01:43:41.436Z,239.67
2023-03-11T01:44:13.750Z,222.33
2023-03-11T01:44:45.518Z,216.00
2023-03-11T01:45:40.463Z,217.00
2023-03-11T01:46:53.385Z,216.67
2023-03-11T01:47:34.571Z,198.67
2023-03-11T01:48:09.211Z,197.33
2023-03-11T01:48:45.188Z,198.67
2023-03-11T01:49:16.916Z,201.00
2023-03-11T01:49:49.130Z,203.00
2023-03-11T01:50:21.374Z,205.67
2023-03-11T01:50:53.609Z,207.00
2023-03-11T01:51:33.417Z,207.33
2023-03-11T01:52:08.171Z,205.00
2023-03-11T01:52:42.555Z,202.33
2023-03-11T01:53:16.701Z,198.67
2023-03-11T01:53:48.813Z,195.67
2023-03-11T01:54:25.795Z,192.33
2023-03-11T01:54:57.572Z,195.00
2023-03-11T01:55:31.240Z,196.33
2023-03-11T01:56:05.171Z,197.67
2023-03-11T01:56:38.909Z,198.67
2023-03-11T01:57:13.732Z,199.33
2023-03-11T01:57:47.874Z,200.00
2023-03-11T01:58:25.669Z,200.00
2023-03-11T01:58:58.673Z,200.00
2023-03-11T01:59:36.552Z,196.00
2023-03-11T02:00:12.603Z,196.67
2023-03-11T02:00:44.730Z,206.33
2023-03-11T02:01:16.993Z,217.00
2023-03-11T02:01:58.858Z,216.33
2023-03-11T02:02:42.144Z,214.67
2023-03-11T02:03:43.341Z,210.67
2023-03-11T02:04:16.242Z,202.33
2023-03-11T02:04:49.860Z,200.67
2023-03-11T02:05:23.557Z,195.00
2023-03-11T02:05:57.682Z,189.67
2023-03-11T02:06:31.915Z,187.67
2023-03-11T02:07:05.102Z,188.00
2023-03-11T02:07:39.978Z,189.67
2023-03-11T02:08:11.733Z,191.00
2023-03-11T02:08:44.642Z,191.33
2023-03-11T02:09:16.356Z,192.33
2023-03-11T02:09:48.134Z,193.67
2023-03-11T02:10:20.639Z,195.33
2023-03-11T02:10:54.442Z,197.33
2023-03-11T02:11:30.709Z,198.00
2023-03-11T02:12:04.279Z,199.00
2023-03-11T02:12:38.022Z,199.33
2023-03-11T02:13:10.764Z,208.33
2023-03-11T02:13:45.333Z,230.33
2023-03-11T02:14:17.909Z,243.00
2023-03-11T02:14:54.684Z,249.33
2023-03-11T02:15:26.982Z,250.33
2023-03-11T02:16:00.756Z,246.33
2023-03-11T02:16:33.267Z,240.67
2023-03-11T02:17:05.503Z,239.33
2023-03-11T02:17:39.950Z,240.67
2023-03-11T02:18:18.680Z,244.67
2023-03-11T02:18:50.558Z,249.67
2023-03-11T02:19:46.419Z,249.00
2023-03-11T02:20:37.169Z,247.00
2023-03-11T02:21:29.974Z,247.67
2023-03-11T02:22:03.116Z,249.00
2023-03-11T02:22:35.221Z,245.00
2023-03-11T02:23:07.134Z,244.67
2023-03-11T02:24:16.398Z,243.67
2023-03-11T02:25:13.660Z,244.00
2023-03-11T02:26:01.577Z,242.67
2023-03-11T02:27:01.809Z,242.33
2023-03-11T02:27:38.755Z,245.33
2023-03-11T02:28:14.976Z,246.00
2023-03-11T02:28:49.300Z,245.67
2023-03-11T02:29:23.390Z,245.00
2023-03-11T02:29:56.919Z,245.00
2023-03-11T02:30:31.159Z,244.33
2023-03-11T02:31:03.005Z,244.00
2023-03-11T02:31:38.582Z,242.67
2023-03-11T02:32:11.547Z,239.67
2023-03-11T02:32:48.559Z,236.00
2023-03-11T02:33:20.483Z,233.33
2023-03-11T02:33:54.793Z,230.00
2023-03-11T02:34:29.468Z,225.33
2023-03-11T02:35:01.201Z,223.00
2023-03-11T02:35:33.012Z,222.00
2023-03-11T02:36:05.259Z,220.00
2023-03-11T02:36:42.007Z,218.00
2023-03-11T02:37:16.919Z,212.67
2023-03-11T02:37:51.750Z,209.67
2023-03-11T02:38:24.333Z,208.67
2023-03-11T02:38:56.091Z,208.00
2023-03-11T02:39:33.742Z,208.00
2023-03-11T02:40:23.244Z,209.67
2023-03-11T02:41:02.574Z,209.33
2023-03-11T02:41:40.251Z,192.33
2023-03-11T02:42:26.059Z,194.00
2023-03-11T02:43:01.749Z,195.33
2023-03-11T02:43:43.945Z,197.67
2023-03-11T02:44:16.635Z,198.67
2023-03-11T02:45:01.400Z,199.00
2023-03-11T02:45:34.477Z,201.67
2023-03-11T02:46:10.252Z,202.67
2023-03-11T02:46:43.153Z,205.00
2023-03-11T02:47:17.062Z,209.00
2023-03-11T02:47:49.907Z,211.67
2023-03-11T02:48:22.781Z,212.00
2023-03-11T02:48:56.265Z,212.00
2023-03-11T02:49:28.456Z,212.00
2023-03-11T02:50:00.234Z,212.33
2023-03-11T02:50:34.592Z,213.00
2023-03-11T02:51:06.509Z,214.33
2023-03-11T02:51:38.262Z,215.67
2023-03-11T02:52:10.020Z,216.00
2023-03-11T02:52:41.799Z,216.33
2023-03-11T02:53:14.361Z,218.00
2023-03-11T02:53:53.114Z,219.00
2023-03-11T02:54:24.805Z,219.00
2023-03-11T02:54:56.584Z,218.00
2023-03-11T02:55:28.278Z,215.33
2023-03-11T02:56:00.048Z,214.00
2023-03-11T02:56:32.368Z,211.67
2023-03-11T02:57:04.383Z,209.33
2023-03-11T02:57:36.128Z,207.33
2023-03-11T02:58:07.962Z,203.00
2023-03-11T02:58:39.684Z,197.67
2023-03-11T02:59:11.455Z,197.00
2023-03-11T02:59:43.230Z,196.00
2023-03-11T03:00:17.449Z,195.00
2023-03-11T03:00:49.326Z,194.00
2023-03-11T03:01:21.491Z,193.00
2023-03-11T03:01:53.190Z,193.67
2023-03-11T03:02:24.985Z,193.33
2023-03-11T03:02:56.898Z,191.00
2023-03-11T03:03:28.673Z,188.33
2023-03-11T03:04:00.560Z,190.00
2023-03-11T03:04:32.388Z,190.67
2023-03-11T03:05:04.261Z,191.00
2023-03-11T03:05:36.020Z,191.67
2023-03-11T03:06:07.854Z,192.00
2023-03-11T03:06:39.583Z,193.00
2023-03-11T03:07:11.666Z,193.00
2023-03-11T03:07:43.404Z,193.67
2023-03-11T03:08:15.421Z,194.00
2023-03-11T03:08:47.211Z,193.67
2023-03-11T03:09:18.909Z,191.33
2023-03-11T03:09:50.731Z,191.00
2023-03-11T03:10:23.232Z,189.33
2023-03-11T03:10:54.997Z,189.00
2023-03-11T03:11:26.787Z,189.00
2023-03-11T03:11:58.524Z,189.67
2023-03-11T03:12:30.465Z,190.00
2023-03-11T03:13:02.223Z,190.00
2023-03-11T03:13:34.171Z,190.67
2023-03-11T03:14:05.873Z,191.00
2023-03-11T03:14:37.554Z,191.33
2023-03-11T03:15:10.657Z,192.00
2023-03-11T03:15:42.368Z,191.67
2023-03-11T03:16:14.174Z,190.67
2023-03-11T03:16:46.046Z,190.00
2023-03-11T03:17:17.901Z,190.33
2023-03-11T03:17:51.647Z,192.33
2023-03-11T03:18:23.534Z,195.33
2023-03-11T03:18:55.256Z,196.33
2023-03-11T03:19:27.032Z,197.33
2023-03-11T03:19:58.792Z,198.33
2023-03-11T03:20:30.830Z,200.33
2023-03-11T03:21:02.603Z,203.00
2023-03-11T03:21:34.372Z,206.00
2023-03-11T03:22:06.532Z,207.33
2023-03-11T03:22:39.520Z,209.00
2023-03-11T03:23:11.237Z,211.67
2023-03-11T03:23:42.937Z,212.67
2023-03-11T03:24:14.747Z,215.00
2023-03-11T03:24:46.617Z,216.67
2023-03-11T03:25:18.845Z,217.00
2023-03-11T03:25:50.532Z,218.00
2023-03-11T03:26:22.252Z,217.67
2023-03-11T03:26:54.023Z,218.67
2023-03-11T03:27:25.711Z,219.67
2023-03-11T03:27:57.474Z,228.67
2023-03-11T03:28:29.188Z,240.67
2023-03-11T03:29:00.873Z,242.67
2023-03-11T03:29:32.664Z,242.67
2023-03-11T03:30:05.897Z,241.00
2023-03-11T03:30:38.481Z,243.00
2023-03-11T03:31:11.675Z,241.67
2023-03-11T03:31:43.569Z,239.67
2023-03-11T03:32:15.354Z,238.33
2023-03-11T03:32:47.137Z,235.00
2023-03-11T03:33:18.878Z,234.00
2023-03-11T03:33:50.566Z,234.00
2023-03-11T03:34:22.283Z,236.67
2023-03-11T03:34:59.015Z,242.33
2023-03-11T03:35:31.208Z,243.00
2023-03-11T03:36:07.836Z,241.00
2023-03-11T03:36:39.657Z,239.00
2023-03-11T03:37:11.356Z,237.67
2023-03-11T03:37:43.084Z,235.33
2023-03-11T03:38:15.088Z,230.67
2023-03-11T03:38:46.868Z,219.33
2023-03-11T03:39:19.989Z,208.67
2023-03-11T03:39:51.806Z,207.00
2023-03-11T03:40:23.647Z,208.67
2023-03-11T03:40:55.382Z,208.00
2023-03-11T03:41:27.851Z,205.33
2023-03-11T03:41:59.666Z,202.00
2023-03-11T03:42:31.879Z,204.00
2023-03-11T03:43:04.377Z,201.00
2023-03-11T03:43:36.168Z,199.33
2023-03-11T03:44:07.866Z,190.67
2023-03-11T03:44:39.572Z,170.67
2023-03-11T03:45:11.620Z,148.67
2023-03-11T03:45:43.374Z,151.00
2023-03-11T03:46:15.552Z,165.67
2023-03-11T03:46:47.413Z,166.33
2023-03-11T03:47:20.542Z,153.00
2023-03-11T03:47:52.349Z,142.00
2023-03-11T03:48:24.312Z,144.00
2023-03-11T03:48:56.225Z,148.00
2023-03-11T03:49:27.966Z,150.00
2023-03-11T03:49:59.670Z,156.00
2023-03-11T03:50:31.466Z,159.33
2023-03-11T03:51:05.659Z,153.00
2023-03-11T03:51:37.355Z,152.00
2023-03-11T03:52:10.493Z,140.00
2023-03-11T03:52:42.299Z,127.67
2023-03-11T03:53:14.198Z,123.00
2023-03-11T03:53:46.754Z,125.33
2023-03-11T03:54:18.507Z,128.33
2023-03-11T03:54:50.860Z,108.67
2023-03-11T03:55:22.611Z,88.00
2023-03-11T03:55:54.785Z,73.33
2023-03-11T03:56:26.661Z,61.33
2023-03-11T03:56:58.943Z,52.00
2023-03-11T03:57:30.691Z,44.33
2023-03-11T03:58:02.398Z,33.33
2023-03-11T03:58:34.275Z,31.00
2023-03-11T03:59:06.011Z,30.67
2023-03-11T03:59:37.822Z,27.67
2023-03-11T04:00:10.433Z,25.00
2023-03-11T04:00:42.304Z,24.00
2023-03-11T04:01:14.408Z,23.67
2023-03-11T04:01:46.149Z,24.00
2023-03-11T04:02:17.897Z,25.00
2023-03-11T04:02:49.586Z,26.00
2023-03-11T04:03:21.283Z,25.33
2023-03-11T04:03:53.142Z,23.67
2023-03-11T04:04:24.914Z,23.00
2023-03-11T04:04:56.858Z,22.33
2023-03-11T04:05:28.591Z,22.00
2023-03-11T04:06:23.415Z,20.67
2023-03-11T04:06:55.214Z,18.33
2023-03-11T04:07:26.906Z,17.00
2023-03-11T04:07:58.751Z,18.00
2023-03-11T04:08:30.537Z,19.33
2023-03-11T04:09:02.271Z,19.33
2023-03-11T04:09:34.105Z,19.00
2023-03-11T04:10:06.552Z,19.00
2023-03-11T04:10:38.261Z,19.33
2023-03-11T04:11:10.107Z,21.00
2023-03-11T04:11:41.801Z,22.00
2023-03-11T04:12:15.636Z,22.00
2023-03-11T04:12:47.373Z,21.67
2023-03-11T04:13:19.121Z,22.00
2023-03-11T04:13:50.906Z,22.00
2023-03-11T04:14:22.677Z,23.00
2023-03-11T04:14:54.459Z,23.67
2023-03-11T04:15:26.284Z,24.33
2023-03-11T04:15:58.091Z,25.00
2023-03-11T04:16:30.098Z,25.00
2023-03-11T04:17:01.945Z,26.00
2023-03-11T04:17:33.697Z,26.00
2023-03-11T04:18:05.727Z,26.67
2023-03-11T04:18:37.456Z,27.00
2023-03-11T04:19:09.879Z,27.00
2023-03-11T04:19:41.656Z,27.00
2023-03-11T04:20:13.593Z,27.00
2023-03-11T04:20:46.584Z,27.00
2023-03-11T04:21:18.465Z,26.00
2023-03-11T04:21:52.021Z,26.00
2023-03-11T04:22:23.793Z,26.00
2023-03-11T04:22:55.478Z,26.00
2023-03-11T04:23:27.166Z,25.33
2023-03-11T04:23:59.857Z,25.00
2023-03-11T04:24:31.903Z,24.67
2023-03-11T04:25:03.871Z,24.00
2023-03-11T04:25:35.694Z,23.67
2023-03-11T04:26:07.449Z,23.33
2023-03-11T04:26:39.532Z,24.00
2023-03-11T04:27:11.265Z,24.00
2023-03-11T04:27:46.093Z,24.00
2023-03-11T04:28:17.911Z,24.67
2023-03-11T04:28:49.929Z,25.00
2023-03-11T04:29:21.680Z,26.00
2023-03-11T04:29:53.477Z,26.00
2023-03-11T04:30:25.424Z,26.33
2023-03-11T04:30:57.368Z,27.00
2023-03-11T04:31:29.239Z,27.00
2023-03-11T04:32:00.979Z,27.00
2023-03-11T04:32:32.782Z,27.00
2023-03-11T04:33:04.511Z,27.33
2023-03-11T04:33:36.257Z,29.00
2023-03-11T04:34:08.102Z,33.67
2023-03-11T04:34:39.889Z,43.67
2023-03-11T04:35:11.678Z,52.00
2023-03-11T04:35:43.526Z,63.33
2023-03-11T04:36:15.336Z,79.00
2023-03-11T04:36:47.074Z,99.00
2023-03-11T04:37:18.880Z,118.67
2023-03-11T04:37:50.619Z,119.33
2023-03-11T04:38:22.583Z,116.67
2023-03-11T04:38:57.036Z,120.67
2023-03-11T04:39:28.860Z,129.67
2023-03-11T04:40:00.606Z,129.67
2023-03-11T04:40:32.645Z,126.00
2023-03-11T04:41:06.391Z,119.00
2023-03-11T04:41:38.182Z,110.33
2023-03-11T04:42:09.926Z,102.67
2023-03-11T04:42:41.888Z,99.00
2023-03-11T04:43:13.615Z,95.33
2023-03-11T04:43:45.438Z,95.33
2023-03-11T04:44:17.171Z,102.00
2023-03-11T04:44:49.035Z,106.67
2023-03-11T04:45:20.896Z,106.67
2023-03-11T04:45:52.792Z,103.00
2023-03-11T04:46:24.611Z,102.00
2023-03-11T04:46:57.280Z,100.33
2023-03-11T04:47:29.074Z,98.67
2023-03-11T04:48:00.805Z,97.67
2023-03-11T04:48:32.568Z,97.00
2023-03-11T04:49:04.289Z,96.00
2023-03-11T04:49:36.186Z,95.00
2023-03-11T04:50:08.082Z,94.00
2023-03-11T04:50:39.853Z,94.00
2023-03-11T04:51:11.613Z,92.33
2023-03-11T04:51:43.354Z,86.67
2023-03-11T04:52:15.256Z,76.00
2023-03-11T04:52:47.359Z,66.67
2023-03-11T04:53:19.347Z,63.00
2023-03-11T04:53:51.116Z,62.00
2023-03-11T04:54:22.805Z,59.00
2023-03-11T04:54:54.531Z,53.33
2023-03-11T04:55:26.342Z,48.00
2023-03-11T04:55:58.067Z,44.00
2023-03-11T04:56:29.969Z,41.33
2023-03-11T04:57:01.875Z,37.33
2023-03-11T04:57:33.669Z,34.67
2023-03-11T04:58:05.466Z,31.00
2023-03-11T04:58:37.442Z,30.67
2023-03-11T04:59:09.189Z,31.33
2023-03-11T04:59:40.955Z,32.67
2023-03-11T05:00:13.985Z,33.67
2023-03-11T05:00:45.987Z,34.67
2023-03-11T05:01:17.848Z,36.67
2023-03-11T05:01:49.729Z,38.00
2023-03-11T05:02:21.519Z,36.00
2023-03-11T05:02:53.691Z,33.00
2023-03-11T05:03:25.856Z,30.67
2023-03-11T05:03:57.688Z,30.00
2023-03-11T05:04:29.496Z,29.33
2023-03-11T05:05:01.734Z,29.67
2023-03-11T05:05:33.548Z,31.33
2023-03-11T05:06:05.733Z,32.33
2023-03-11T05:06:37.468Z,33.67
2023-03-11T05:07:09.225Z,35.33
2023-03-11T05:07:40.951Z,36.67
2023-03-11T05:08:12.665Z,39.00
2023-03-11T05:08:44.388Z,41.33
2023-03-11T05:09:16.098Z,43.00
2023-03-11T05:09:47.836Z,43.00
2023-03-11T05:10:22.524Z,43.00
2023-03-11T05:10:54.478Z,44.00
2023-03-11T05:11:26.276Z,44.00
2023-03-11T05:11:58.024Z,44.67
2023-03-11T05:12:29.741Z,44.33
2023-03-11T05:13:01.405Z,43.67
2023-03-11T05:13:33.235Z,42.00
2023-03-11T05:14:04.975Z,39.00
2023-03-11T05:14:36.822Z,35.33
2023-03-11T05:15:08.790Z,33.67
2023-03-11T05:15:40.642Z,33.00
2023-03-11T05:16:12.444Z,32.33
2023-03-11T05:16:44.237Z,32.00
2023-03-11T05:17:18.664Z,30.67
2023-03-11T05:17:50.452Z,29.33
2023-03-11T05:18:22.307Z,31.00
2023-03-11T05:18:54.042Z,31.00
2023-03-11T05:19:31.785Z,31.33
2023-03-11T05:20:06.697Z,29.67
2023-03-11T05:20:38.689Z,28.00
2023-03-11T05:21:10.399Z,26.67
2023-03-11T05:21:42.094Z,25.33
2023-03-11T05:22:13.828Z,24.33
2023-03-11T05:22:45.542Z,23.33
2023-03-11T05:23:17.300Z,23.00
2023-03-11T05:23:49.754Z,23.00
2023-03-11T05:24:21.752Z,23.00
2023-03-11T05:24:53.549Z,23.00
2023-03-11T05:25:25.705Z,23.00
2023-03-11T05:25:57.468Z,23.00
2023-03-11T05:26:29.187Z,23.33
2023-03-11T05:27:02.083Z,24.00
2023-03-11T05:27:33.799Z,24.00
2023-03-11T05:28:05.805Z,24.67
2023-03-11T05:28:37.523Z,25.00
2023-03-11T05:29:09.445Z,25.00
2023-03-11T05:29:41.470Z,25.00
2023-03-11T05:30:13.378Z,26.00
2023-03-11T05:30:45.180Z,26.00
2023-03-11T05:31:16.992Z,25.67
2023-03-11T05:31:48.723Z,24.67
2023-03-11T05:32:20.951Z,23.33
2023-03-11T05:32:52.790Z,21.67
2023-03-11T05:33:24.598Z,19.67
2023-03-11T05:33:56.307Z,17.00
2023-03-11T05:34:28.093Z,14.67
2023-03-11T05:34:59.972Z,12.67
2023-03-11T05:35:31.692Z,11.67
2023-03-11T05:36:05.850Z,11.00
2023-03-11T05:36:37.626Z,10.33
2023-03-11T05:37:09.402Z,10.00
2023-03-11T05:37:41.269Z,9.67
2023-03-11T05:38:13.499Z,9.00
2023-03-11T05:38:45.215Z,9.00
2023-03-11T05:39:17.027Z,9.00
2023-03-11T05:39:48.913Z,9.00
2023-03-11T05:40:21.514Z,9.00
2023-03-11T05:40:53.802Z,9.00
2023-03-11T05:41:25.546Z,9.00
2023-03-11T05:41:57.281Z,9.00
2023-03-11T05:42:29.063Z,9.00
2023-03-11T05:43:00.807Z,9.00
2023-03-11T05:43:32.559Z,9.00
2023-03-11T05:44:04.724Z,9.00
2023-03-11T05:44:36.652Z,9.00
2023-03-11T05:45:09.635Z,9.00
2023-03-11T05:45:41.413Z,9.00
2023-03-11T05:46:13.249Z,9.00
2023-03-11T05:46:45.085Z,9.00
2023-03-11T05:47:18.227Z,9.00
2023-03-11T05:47:51.888Z,9.00
2023-03-11T05:48:23.709Z,9.00
2023-03-11T05:48:55.494Z,9.00
2023-03-11T05:49:28.083Z,9.00
2023-03-11T05:49:59.816Z,9.00
2023-03-11T05:50:31.894Z,9.00
2023-03-11T05:51:11.901Z,9.00
2023-03-11T05:51:43.747Z,10.00
2023-03-11T05:52:15.963Z,10.00
2023-03-11T05:52:47.829Z,10.00
2023-03-11T05:53:19.654Z,10.00
2023-03-11T05:53:51.475Z,10.00
2023-03-11T05:54:23.220Z,10.00
2023-03-11T05:54:54.916Z,10.00
2023-03-11T05:55:26.637Z,10.00
2023-03-11T05:55:59.833Z,10.00
2023-03-11T05:56:31.723Z,10.00
2023-03-11T05:57:03.743Z,10.00
2023-03-11T05:57:35.801Z,10.00
2023-03-11T05:58:07.535Z,9.33
2023-03-11T05:58:39.298Z,9.00
2023-03-11T05:59:15.801Z,9.00
2023-03-11T05:59:48.118Z,9.00
2023-03-11T06:00:20.629Z,9.00
2023-03-11T06:00:52.396Z,9.00
2023-03-11T06:01:24.114Z,9.00
2023-03-11T06:01:55.922Z,9.00
2023-03-11T06:02:27.699Z,9.00
2023-03-11T06:02:59.480Z,9.00
2023-03-11T06:03:31.268Z,9.00
2023-03-11T06:04:03.395Z,8.33
2023-03-11T06:04:37.062Z,8.00
2023-03-11T06:05:11.642Z,8.00
2023-03-11T06:05:49.635Z,8.00
2023-03-11T06:06:21.379Z,8.00
2023-03-11T06:06:53.789Z,8.67
2023-03-11T06:07:25.549Z,9.00
2023-03-11T06:07:57.440Z,9.00
2023-03-11T06:08:30.856Z,9.00
2023-03-11T06:09:04.240Z,9.00
2023-03-11T06:09:37.117Z,9.67
2023-03-11T06:10:09.735Z,10.00
2023-03-11T06:10:42.183Z,10.00
2023-03-11T06:11:14.425Z,10.00
2023-03-11T06:11:46.410Z,10.00
2023-03-11T06:12:18.854Z,10.33
2023-03-11T06:12:50.572Z,11.00
2023-03-11T06:13:22.448Z,11.33
2023-03-11T06:13:55.983Z,12.00
2023-03-11T06:14:31.688Z,12.00
2023-03-11T06:15:03.586Z,12.00
2023-03-11T06:15:37.037Z,11.33
2023-03-11T06:16:09.561Z,11.00
2023-03-11T06:16:42.089Z,11.00
2023-03-11T06:17:14.144Z,11.00
2023-03-11T06:17:45.987Z,11.00
2023-03-11T06:18:17.812Z,11.00
2023-03-11T06:18:49.592Z,11.00
2023-03-11T06:19:21.698Z,11.00
2023-03-11T06:19:53.406Z,11.00
2023-03-11T06:20:25.619Z,11.00
2023-03-11T06:21:02.340Z,11.00
2023-03-11T06:21:34.074Z,11.00
2023-03-11T06:22:05.811Z,11.00
2023-03-11T06:22:40.105Z,11.00
2023-03-11T06:23:12.122Z,11.00
2023-03-11T06:23:44.179Z,12.00
2023-03-11T06:24:15.914Z,12.00
2023-03-11T06:24:47.791Z,12.67
2023-03-11T06:25:20.161Z,13.33
2023-03-11T06:25:59.657Z,14.33
2023-03-11T06:26:31.470Z,17.00
2023-03-11T06:27:03.364Z,18.00
2023-03-11T06:27:35.296Z,18.67
2023-03-11T06:28:07.467Z,18.67
2023-03-11T06:28:39.243Z,18.00
2023-03-11T06:29:15.498Z,18.00
2023-03-11T06:29:48.681Z,18.00
2023-03-11T06:30:20.796Z,18.00
2023-03-11T06:30:52.874Z,18.00
2023-03-11T06:31:27.843Z,18.33
2023-03-11T06:32:00.305Z,19.00
2023-03-11T06:32:32.250Z,19.00
2023-03-11T06:33:04.114Z,19.00
2023-03-11T06:33:35.986Z,18.00
2023-03-11T06:34:09.080Z,18.00
2023-03-11T06:34:40.866Z,18.00
2023-03-11T06:35:13.002Z,18.00
2023-03-11T06:35:45.273Z,18.00
2023-03-11T06:36:18.724Z,18.00
2023-03-11T06:36:50.562Z,18.00
2023-03-11T06:37:23.693Z,23.33
2023-03-11T06:37:55.452Z,42.00
2023-03-11T06:38:27.849Z,45.00
2023-03-11T06:38:59.820Z,43.67
2023-03-11T06:39:31.656Z,44.33
2023-03-11T06:40:08.607Z,44.33
2023-03-11T06:40:40.572Z,42.00
2023-03-11T06:41:13.322Z,40.33
2023-03-11T06:41:45.255Z,39.33
2023-03-11T06:42:17.008Z,38.33
2023-03-11T06:42:48.853Z,37.33
2023-03-11T06:43:22.338Z,37.00
2023-03-11T06:43:54.180Z,37.00
2023-03-11T06:44:25.975Z,37.00
2023-03-11T06:44:57.728Z,36.33
2023-03-11T06:45:29.485Z,35.67
2023-03-11T06:46:02.229Z,34.33
2023-03-11T06:46:34.064Z,32.67
2023-03-11T06:47:05.978Z,32.00
2023-03-11T06:47:37.838Z,32.00
2023-03-11T06:48:10.304Z,32.00
2023-03-11T06:48:42.403Z,31.33
2023-03-11T06:49:14.545Z,31.00
2023-03-11T06:49:46.824Z,31.00
2023-03-11T06:50:18.985Z,30.33
2023-03-11T06:50:58.417Z,30.00
2023-03-11T06:51:30.377Z,28.67
2023-03-11T06:52:03.586Z,27.33
2023-03-11T06:52:35.896Z,25.33
2023-03-11T06:53:07.826Z,23.67
2023-03-11T06:53:40.943Z,22.67
2023-03-11T06:54:13.257Z,22.00
2023-03-11T06:54:45.117Z,22.00
2023-03-11T06:55:17.003Z,22.00
2023-03-11T06:56:09.416Z,22.00
2023-03-11T06:56:41.192Z,22.33
2023-03-11T06:57:13.240Z,22.00
2023-03-11T06:57:45.806Z,22.00
2023-03-11T06:58:17.579Z,21.67